Time;durP1;ratioP1;P1;durP2;ratioP2;P2;SDS_P1;SDS_P2;PMS_P1;PMS_P2;Temp;Humidity;BMP_temperature;BMP_pressure;BME280_temperature;BME280_humidity;BME280_pressure;Samples;Min_cycle;Max_cycle;Signal;HPM_P1;HPM_P2
2021/03/01 07:37:31;;;;;;;36.37;13.10;;;3.50;99.90;;;;;;5011248;23;20237;-73
2021/03/01 07:39:58;;;;;;;32.83;11.53;;;3.50;99.90;;;;;;5012229;28;20255;-73
2021/03/01 07:42:27;;;;;;;31.20;12.47;;;3.60;99.90;;;;;;5013085;28;20220;-73
2021/03/01 07:44:54;;;;;;;37.83;11.93;;;3.60;99.90;;;;;;5012682;28;20332;-75
2021/03/01 07:47:27;;;;;;;39.70;13.30;;;3.60;99.90;;;;;;5013373;28;20209;-73
2021/03/01 07:49:54;;;;;;;30.83;12.00;;;3.70;99.90;;;;;;5012755;28;20206;-73
2021/03/01 07:52:38;;;;;;;33.43;11.90;;;3.80;99.90;;;;;;5012654;28;20209;-74
2021/03/01 07:55:07;;;;;;;26.93;11.97;;;3.80;99.90;;;;;;5012307;28;20240;-73
2021/03/01 07:57:35;;;;;;;33.30;12.23;;;3.60;99.90;;;;;;5013322;28;20229;-73
2021/03/01 08:00:23;;;;;;;31.27;12.70;;;3.70;99.90;;;;;;5015764;28;20209;-73
2021/03/01 08:02:49;;;;;;;30.47;11.47;;;3.70;99.90;;;;;;5015811;28;20202;-73
2021/03/01 08:05:25;;;;;;;39.97;12.13;;;3.70;99.90;;;;;;5015734;28;20695;-74
2021/03/01 08:07:52;;;;;;;32.27;11.90;;;3.70;99.90;;;;;;5016746;28;20206;-74
2021/03/01 08:10:40;;;;;;;34.63;11.97;;;3.80;99.90;;;;;;5016496;28;20572;-75
2021/03/01 08:13:07;;;;;;;33.23;12.50;;;3.80;99.90;;;;;;5016592;28;20292;-73
2021/03/01 08:15:42;;;;;;;35.03;10.63;;;3.80;99.90;;;;;;5016593;28;20236;-73
2021/03/01 08:18:11;;;;;;;39.00;11.83;;;3.70;99.90;;;;;;5016663;28;20213;-73
2021/03/01 08:20:54;;;;;;;37.63;11.97;;;3.80;99.90;;;;;;5016527;28;20300;-73
2021/03/01 08:23:33;;;;;;;25.40;10.57;;;3.80;99.90;;;;;;5016795;28;20212;-74
2021/03/01 08:26:02;;;;;;;34.67;12.13;;;3.70;99.90;;;;;;5016450;28;20240;-73
2021/03/01 08:28:48;;;;;;;33.23;10.93;;;3.70;99.90;;;;;;5016570;28;20233;-73
2021/03/01 08:31:38;;;;;;;27.77;10.77;;;3.80;99.90;;;;;;5016597;28;20732;-73
2021/03/01 08:34:24;;;;;;;37.57;10.77;;;3.80;99.90;;;;;;5016508;28;20225;-74
2021/03/01 08:36:50;;;;;;;27.47;10.20;;;3.80;99.90;;;;;;5016454;28;20656;-73
2021/03/01 08:40:08;;;;;;;33.23;11.80;;;3.90;99.90;;;;;;5016372;28;20210;-73
2021/03/01 08:42:54;;;;;;;32.13;11.23;;;3.90;99.90;;;;;;5016291;28;20683;-73
2021/03/01 08:45:32;;;;;;;30.03;12.17;;;4.00;99.90;;;;;;5016135;28;20241;-73
2021/03/01 08:47:59;;;;;;;36.93;12.43;;;4.10;99.90;;;;;;5016069;28;20208;-72
2021/03/01 08:50:29;;;;;;;40.57;12.20;;;4.30;99.90;;;;;;5016524;28;20206;-73
2021/03/01 08:52:56;;;;;;;34.00;11.50;;;4.30;99.90;;;;;;5016360;28;20210;-73
2021/03/01 08:55:23;;;;;;;33.90;11.93;;;4.40;99.90;;;;;;5015873;28;20232;-73
2021/03/01 08:58:10;;;;;;;32.60;11.63;;;4.30;99.90;;;;;;5016025;28;20209;-73
2021/03/01 09:00:37;;;;;;;27.20;11.37;;;4.40;99.90;;;;;;5016257;28;20210;-73
2021/03/01 09:03:29;;;;;;;31.80;10.40;;;4.60;99.90;;;;;;5015750;28;20694;-73
2021/03/01 09:06:03;;;;;;;35.23;11.27;;;4.80;99.90;;;;;;5015692;28;20237;-73
2021/03/01 09:08:32;;;;;;;34.43;12.00;;;5.10;99.90;;;;;;5015365;28;20212;-73
2021/03/01 09:11:01;;;;;;;34.63;11.17;;;5.10;99.90;;;;;;5015254;28;20201;-73
2021/03/01 09:13:29;;;;;;;30.43;10.50;;;5.00;99.90;;;;;;5015801;28;20210;-73
2021/03/01 09:15:56;;;;;;;40.83;12.27;;;4.90;99.90;;;;;;5015846;28;20229;-74
2021/03/01 09:18:27;;;;;;;34.67;11.00;;;4.90;99.90;;;;;;5015758;28;20206;-73
2021/03/01 09:20:56;;;;;;;33.03;10.53;;;4.90;99.90;;;;;;5015632;28;20213;-73
2021/03/01 09:23:37;;;;;;;31.53;10.23;;;5.00;99.90;;;;;;5015386;28;20214;-74
2021/03/01 09:26:05;;;;;;;32.03;9.63;;;5.10;99.90;;;;;;5015578;28;20323;-74
2021/03/01 09:28:33;;;;;;;42.53;10.87;;;5.20;99.90;;;;;;5015794;28;20217;-73
2021/03/01 09:31:07;;;;;;;27.50;9.97;;;5.60;99.90;;;;;;5015618;28;20202;-74
2021/03/01 09:33:34;;;;;;;36.30;11.00;;;5.80;99.90;;;;;;5015428;28;20267;-74
2021/03/01 09:36:00;;;;;;;34.40;10.07;;;5.90;99.90;;;;;;5015496;28;20227;-75
2021/03/01 09:38:27;;;;;;;30.23;10.00;;;5.80;99.90;;;;;;5014787;28;20214;-76
2021/03/01 09:41:01;;;;;;;30.00;9.10;;;5.70;99.90;;;;;;5015291;28;20275;-76
2021/03/01 09:43:29;;;;;;;28.77;9.97;;;5.80;99.90;;;;;;5015374;28;20209;-75
2021/03/01 09:45:56;;;;;;;29.13;10.17;;;5.90;99.90;;;;;;5015008;28;20248;-75
2021/03/01 09:48:22;;;;;;;31.67;10.30;;;5.90;99.90;;;;;;5015073;28;20210;-75
2021/03/01 09:50:50;;;;;;;34.20;9.93;;;6.10;99.90;;;;;;5015153;28;20217;-74
2021/03/01 09:53:17;;;;;;;33.43;10.33;;;6.20;99.90;;;;;;5014984;28;20213;-75
2021/03/01 09:55:44;;;;;;;27.70;9.50;;;6.10;99.90;;;;;;5015021;28;20672;-75
2021/03/01 09:58:29;;;;;;;29.40;9.27;;;6.30;99.90;;;;;;5014787;28;20210;-75
2021/03/01 10:01:06;;;;;;;33.53;9.93;;;6.40;99.90;;;;;;5014930;28;20209;-75
2021/03/01 10:03:37;;;;;;;26.20;9.00;;;6.20;99.90;;;;;;5014874;28;20237;-75
2021/03/01 10:06:03;;;;;;;32.33;10.00;;;6.40;99.90;;;;;;5014564;28;20698;-76
2021/03/01 10:08:30;;;;;;;33.40;10.83;;;6.50;99.90;;;;;;5014581;28;20214;-76
2021/03/01 10:10:56;;;;;;;26.17;8.57;;;6.60;99.90;;;;;;5014630;28;20209;-76
2021/03/01 10:13:25;;;;;;;28.40;8.57;;;6.70;99.90;;;;;;5014363;28;20217;-75
2021/03/01 10:15:53;;;;;;;27.47;8.77;;;6.70;99.90;;;;;;5014449;28;20229;-75
2021/03/01 10:18:22;;;;;;;34.73;9.90;;;7.00;99.90;;;;;;5014647;28;20209;-75
2021/03/01 10:20:56;;;;;;;24.90;8.73;;;6.90;99.90;;;;;;5013931;28;20216;-76
2021/03/01 10:23:37;;;;;;;27.77;9.93;;;6.90;99.90;;;;;;5014217;28;20204;-75
2021/03/01 10:26:16;;;;;;;35.40;9.57;;;6.60;99.90;;;;;;5014312;28;20233;-75
2021/03/01 10:28:51;;;;;;;27.67;9.93;;;6.40;99.90;;;;;;5014321;28;20608;-75
2021/03/01 10:31:20;;;;;;;25.60;9.20;;;6.50;99.90;;;;;;5014260;28;20225;-75
2021/03/01 10:33:51;;;;;;;29.43;9.33;;;6.80;99.90;;;;;;5014139;28;20276;-75
2021/03/01 10:36:18;;;;;;;29.43;9.80;;;6.90;99.90;;;;;;5013951;28;20205;-75
2021/03/01 10:38:59;;;;;;;28.83;10.03;;;6.90;99.90;;;;;;5013902;28;20572;-76
2021/03/01 10:41:29;;;;;;;28.37;8.70;;;7.00;99.90;;;;;;5014041;28;20201;-75
2021/03/01 10:44:01;;;;;;;29.67;8.77;;;7.20;99.90;;;;;;5013887;28;20210;-75
2021/03/01 10:46:36;;;;;;;29.17;9.60;;;7.50;99.90;;;;;;5013616;28;20241;-74
2021/03/01 10:49:12;;;;;;;24.43;8.20;;;7.10;99.90;;;;;;5014172;28;20209;-75
2021/03/01 10:51:38;;;;;;;30.90;8.53;;;7.20;99.90;;;;;;5013836;28;20205;-75
2021/03/01 10:54:05;;;;;;;26.47;8.43;;;7.30;99.90;;;;;;5013575;28;20229;-75
2021/03/01 10:56:31;;;;;;;23.33;8.90;;;7.30;99.90;;;;;;5013882;28;20220;-75
2021/03/01 10:58:57;;;;;;;26.87;9.43;;;7.30;99.90;;;;;;5013782;28;20628;-75
2021/03/01 11:01:31;;;;;;;29.63;10.03;;;7.30;99.90;;;;;;5013918;28;20212;-75
2021/03/01 11:03:58;;;;;;;33.50;11.17;;;7.60;99.90;;;;;;5013429;28;20237;-76
2021/03/01 11:06:25;;;;;;;27.33;8.77;;;7.70;99.90;;;;;;5013273;28;20241;-76
2021/03/01 11:08:51;;;;;;;25.77;9.20;;;7.90;99.90;;;;;;5012987;28;20217;-76
2021/03/01 11:11:17;;;;;;;31.53;10.17;;;7.80;99.90;;;;;;5012986;28;20201;-76
2021/03/01 11:13:44;;;;;;;23.90;9.30;;;7.90;99.90;;;;;;5013368;28;20205;-76
2021/03/01 11:16:10;;;;;;;30.33;10.03;;;8.20;99.90;;;;;;5013441;28;20620;-75
2021/03/01 11:18:36;;;;;;;31.60;9.60;;;8.50;99.90;;;;;;5013529;28;20216;-74
2021/03/01 11:21:03;;;;;;;31.60;9.93;;;8.80;99.90;;;;;;5013517;28;20275;-75
2021/03/01 11:23:30;;;;;;;26.53;9.03;;;8.90;99.90;;;;;;5013530;28;20217;-75
2021/03/01 11:25:56;;;;;;;26.80;9.33;;;9.00;99.90;;;;;;5013233;28;20256;-75
2021/03/01 11:28:23;;;;;;;26.93;9.50;;;8.70;99.90;;;;;;5012900;28;20209;-76
2021/03/01 11:30:50;;;;;;;27.40;9.73;;;8.50;99.90;;;;;;5013347;28;20205;-75
2021/03/01 11:33:17;;;;;;;28.07;9.37;;;8.60;99.90;;;;;;5013156;28;20217;-76
2021/03/01 11:35:43;;;;;;;25.83;9.50;;;8.50;99.90;;;;;;5013485;28;20221;-76
2021/03/01 11:38:10;;;;;;;24.40;8.83;;;8.50;99.90;;;;;;5013204;28;20224;-75
2021/03/01 11:40:36;;;;;;;32.93;10.10;;;8.40;99.90;;;;;;5012991;28;20216;-76
2021/03/01 11:43:02;;;;;;;31.53;10.13;;;8.30;99.90;;;;;;5012964;28;20232;-76
2021/03/01 11:45:29;;;;;;;31.27;9.90;;;8.50;99.90;;;;;;5012710;28;20245;-76
2021/03/01 11:47:55;;;;;;;30.83;9.07;;;8.50;99.90;;;;;;5011716;28;20210;-76
2021/03/01 11:50:22;;;;;;;26.07;10.03;;;8.50;99.90;;;;;;5012913;28;20202;-76
2021/03/01 11:52:48;;;;;;;30.67;10.10;;;8.50;99.90;;;;;;5012163;28;20220;-76
2021/03/01 11:55:16;;;;;;;30.27;10.20;;;8.60;99.90;;;;;;5012636;28;20241;-77
2021/03/01 11:57:42;;;;;;;27.67;9.53;;;8.80;99.90;;;;;;5012730;28;20206;-77
2021/03/01 12:00:09;;;;;;;27.90;8.87;;;9.00;99.90;;;;;;5012790;28;20206;-76
2021/03/01 12:02:35;;;;;;;33.67;9.93;;;9.10;99.90;;;;;;5012794;28;20210;-77
2021/03/01 12:05:02;;;;;;;29.53;9.40;;;9.10;99.90;;;;;;5012499;28;20234;-77
2021/03/01 12:07:28;;;;;;;29.50;9.83;;;9.00;99.90;;;;;;5013052;28;20209;-77
2021/03/01 12:09:54;;;;;;;26.63;8.87;;;9.00;99.90;;;;;;5012604;28;20205;-77
2021/03/01 12:12:21;;;;;;;31.47;10.10;;;9.10;99.90;;;;;;5013124;28;20206;-76
2021/03/01 12:14:48;;;;;;;23.50;8.20;;;9.00;99.90;;;;;;5013216;28;20225;-77
2021/03/01 12:17:14;;;;;;;21.33;7.73;;;8.80;99.90;;;;;;5012963;28;20213;-77
2021/03/01 12:19:41;;;;;;;22.90;8.07;;;8.90;99.90;;;;;;5009737;28;20202;-75
2021/03/01 12:22:07;;;;;;;28.70;9.37;;;8.80;99.90;;;;;;5010740;28;20210;-76
2021/03/01 12:24:34;;;;;;;25.70;7.63;;;9.00;99.90;;;;;;5010457;28;20236;-74
2021/03/01 12:27:01;;;;;;;30.77;9.23;;;9.10;99.90;;;;;;5004589;28;20233;-72
2021/03/01 12:29:28;;;;;;;27.73;9.13;;;9.10;99.90;;;;;;5002880;28;20206;-73
2021/03/01 12:31:55;;;;;;;30.80;10.00;;;9.20;99.90;;;;;;5004727;28;20198;-77
2021/03/01 12:34:21;;;;;;;24.17;9.03;;;9.20;99.90;;;;;;5000196;28;20218;-79
2021/03/01 12:36:48;;;;;;;25.67;7.97;;;9.30;99.90;;;;;;5002267;28;20533;-67
2021/03/01 12:39:14;;;;;;;24.77;8.20;;;9.50;99.90;;;;;;5002357;28;20190;-72
2021/03/01 12:41:40;;;;;;;25.73;9.00;;;9.80;99.90;;;;;;5001070;28;20202;-72
2021/03/01 12:44:08;;;;;;;29.50;9.47;;;9.80;99.90;;;;;;5010117;28;20230;-71
2021/03/01 12:46:35;;;;;;;26.33;8.57;;;9.90;99.90;;;;;;5008940;28;20253;-71
2021/03/01 12:49:01;;;;;;;25.60;8.90;;;10.00;99.90;;;;;;5014737;28;20259;-73
2021/03/01 12:51:28;;;;;;;27.53;9.33;;;10.10;99.90;;;;;;4995594;28;20222;-72
2021/03/01 12:53:54;;;;;;;32.43;8.93;;;9.80;99.90;;;;;;4994017;28;20744;-70
2021/03/01 12:56:20;;;;;;;24.27;8.03;;;9.70;99.90;;;;;;4994262;28;20206;-71
2021/03/01 12:58:46;;;;;;;26.70;8.60;;;9.80;99.90;;;;;;4996043;28;20210;-70
2021/03/01 13:01:13;;;;;;;26.93;9.53;;;10.20;99.90;;;;;;4996320;28;20206;-74
2021/03/01 13:03:40;;;;;;;31.17;10.00;;;10.30;99.90;;;;;;4996213;28;20234;-74
2021/03/01 13:06:06;;;;;;;33.37;10.03;;;10.40;99.90;;;;;;4996131;28;20245;-72
2021/03/01 13:08:32;;;;;;;32.60;9.87;;;10.50;99.90;;;;;;4996442;28;20213;-74
2021/03/01 13:10:59;;;;;;;35.40;10.57;;;10.30;99.90;;;;;;4996101;28;20600;-74
2021/03/01 13:13:25;;;;;;;36.03;10.03;;;10.30;99.90;;;;;;4996121;28;20661;-70
2021/03/01 13:15:52;;;;;;;34.70;10.40;;;10.20;99.90;;;;;;4996243;28;20226;-74
2021/03/01 13:18:18;;;;;;;36.10;10.53;;;10.20;99.90;;;;;;4996527;28;20211;-74
2021/03/01 13:20:45;;;;;;;34.53;10.70;;;10.40;99.90;;;;;;4996051;28;20203;-73
2021/03/01 13:23:11;;;;;;;38.40;11.00;;;10.50;99.90;;;;;;4996073;28;20594;-71
2021/03/01 13:25:38;;;;;;;31.20;9.97;;;10.60;99.90;;;;;;4995805;28;20237;-73
2021/03/01 13:28:05;;;;;;;32.23;10.60;;;10.50;99.90;;;;;;4995696;28;20210;-73
2021/03/01 13:30:31;;;;;;;32.63;10.10;;;10.50;99.90;;;;;;4995565;28;20203;-73
2021/03/01 13:32:57;;;;;;;40.20;10.93;;;10.70;99.90;;;;;;4995724;28;20218;-73
2021/03/01 13:35:23;;;;;;;32.07;9.97;;;10.70;99.90;;;;;;4996218;28;20234;-71
2021/03/01 13:37:50;;;;;;;29.43;10.83;;;10.70;99.90;;;;;;4995428;28;20214;-70
2021/03/01 13:40:17;;;;;;;35.53;10.67;;;10.70;99.90;;;;;;4995446;28;20206;-70
2021/03/01 13:42:44;;;;;;;34.47;10.07;;;10.90;99.90;;;;;;4995693;28;20218;-70
2021/03/01 13:45:12;;;;;;;32.63;11.07;;;10.90;99.90;;;;;;4995503;28;20222;-70
2021/03/01 13:47:42;;;;;;;41.90;11.77;;;10.80;99.90;;;;;;4995304;28;20213;-70
2021/03/01 13:50:09;;;;;;;30.70;10.23;;;10.80;99.90;;;;;;4995744;28;20206;-70
2021/03/01 13:52:35;;;;;;;41.00;10.80;;;10.90;99.90;;;;;;4995762;28;20210;-70
2021/03/01 13:55:03;;;;;;;29.73;9.53;;;11.00;99.90;;;;;;4995475;28;20226;-74
2021/03/01 13:57:29;;;;;;;29.57;11.80;;;11.00;99.90;;;;;;4995441;28;20223;-70
2021/03/01 13:59:55;;;;;;;30.87;9.90;;;11.00;99.90;;;;;;4995345;28;20209;-70
2021/03/01 14:02:22;;;;;;;30.87;10.53;;;11.10;99.90;;;;;;4994988;28;20206;-70
2021/03/01 14:04:48;;;;;;;39.10;11.00;;;11.30;99.90;;;;;;4995070;28;20226;-70
2021/03/01 14:07:14;;;;;;;32.47;10.60;;;11.50;99.90;;;;;;4994896;28;20604;-73
2021/03/01 14:09:41;;;;;;;35.00;11.20;;;11.40;99.90;;;;;;4994896;28;20210;-72
2021/03/01 14:12:08;;;;;;;26.40;9.23;;;11.20;99.90;;;;;;4994967;28;20214;-74
2021/03/01 14:14:34;;;;;;;30.80;10.60;;;11.30;99.90;;;;;;4994971;28;20234;-74
2021/03/01 14:17:01;;;;;;;30.87;9.87;;;11.50;99.90;;;;;;4994872;28;20203;-73
2021/03/01 14:19:27;;;;;;;35.20;10.30;;;11.80;99.90;;;;;;4995288;28;20206;-73
2021/03/01 14:21:53;;;;;;;28.10;9.27;;;11.90;99.90;;;;;;4994925;28;20309;-73
2021/03/01 14:24:19;;;;;;;29.37;9.07;;;12.00;99.90;;;;;;4994763;28;20237;-72
2021/03/01 14:26:46;;;;;;;28.57;10.00;;;11.90;99.90;;;;;;4994543;28;20234;-72
2021/03/01 14:29:13;;;;;;;23.23;7.57;;;11.80;99.90;;;;;;4994768;28;20214;-73
2021/03/01 14:31:39;;;;;;;26.60;8.63;;;11.70;99.90;;;;;;4994492;28;20207;-70
2021/03/01 14:34:05;;;;;;;26.53;8.37;;;11.60;99.90;;;;;;4994722;28;20316;-70
2021/03/01 14:36:32;;;;;;;19.27;8.00;;;11.60;99.90;;;;;;4994644;28;20218;-73
2021/03/01 14:38:58;;;;;;;22.97;8.23;;;11.50;99.90;;;;;;4994796;28;20214;-73
2021/03/01 14:41:25;;;;;;;22.33;7.83;;;11.50;99.90;;;;;;4996237;28;20229;-70
2021/03/01 14:43:52;;;;;;;22.03;7.70;;;11.60;99.90;;;;;;4994231;28;20261;-70
2021/03/01 14:46:19;;;;;;;24.23;7.67;;;11.70;99.90;;;;;;4994824;28;20285;-70
2021/03/01 14:48:46;;;;;;;22.97;8.30;;;11.90;99.90;;;;;;4994635;28;20206;-70
2021/03/01 14:51:12;;;;;;;28.27;9.63;;;12.00;99.90;;;;;;4994645;28;20217;-70
2021/03/01 14:53:38;;;;;;;24.53;9.13;;;11.90;99.90;;;;;;4994165;28;20210;-70
2021/03/01 14:56:05;;;;;;;18.50;7.90;;;11.90;99.90;;;;;;4994336;28;20257;-70
2021/03/01 14:58:32;;;;;;;20.13;7.67;;;11.90;99.90;;;;;;4994238;28;20206;-70
2021/03/01 15:00:59;;;;;;;22.27;8.73;;;11.90;99.90;;;;;;4994539;28;20220;-70
2021/03/01 15:03:26;;;;;;;21.23;8.07;;;12.00;99.90;;;;;;4994326;28;20268;-70
2021/03/01 15:05:53;;;;;;;22.77;8.03;;;11.90;99.90;;;;;;4994052;28;20400;-69
2021/03/01 15:08:21;;;;;;;22.80;8.33;;;11.80;99.90;;;;;;4993677;28;20215;-70
2021/03/01 15:10:48;;;;;;;22.43;7.73;;;11.80;99.90;;;;;;4994022;28;20206;-70
2021/03/01 15:13:14;;;;;;;21.93;7.97;;;11.80;99.90;;;;;;4994013;28;20214;-70
2021/03/01 15:15:40;;;;;;;25.83;8.83;;;11.70;99.90;;;;;;4994025;28;20230;-71
2021/03/01 15:18:07;;;;;;;22.50;9.30;;;11.80;99.90;;;;;;4994030;28;20206;-70
2021/03/01 15:20:34;;;;;;;25.80;8.73;;;11.80;99.90;;;;;;4993922;28;20206;-70
2021/03/01 15:23:00;;;;;;;23.17;8.53;;;11.90;99.90;;;;;;4993830;28;20207;-69
2021/03/01 15:25:26;;;;;;;22.40;8.60;;;11.90;99.90;;;;;;4993799;28;20238;-70
2021/03/01 15:27:53;;;;;;;26.33;8.47;;;11.80;99.90;;;;;;4993353;28;20211;-69
2021/03/01 15:30:20;;;;;;;25.23;8.73;;;11.70;99.90;;;;;;4993349;28;20217;-69
2021/03/01 15:32:46;;;;;;;20.67;7.80;;;11.70;99.90;;;;;;4993506;28;20206;-70
2021/03/01 15:35:12;;;;;;;20.33;8.00;;;11.80;99.90;;;;;;4992320;28;20625;-70
2021/03/01 15:37:40;;;;;;;19.43;8.03;;;11.80;99.90;;;;;;4993899;28;20619;-69
2021/03/01 15:40:07;;;;;;;20.87;8.00;;;11.80;99.90;;;;;;5003094;28;20203;-69
2021/03/01 15:42:33;;;;;;;19.57;8.00;;;11.80;99.90;;;;;;5001689;28;20253;-70
2021/03/01 15:45:00;;;;;;;22.27;8.43;;;11.80;99.90;;;;;;5009065;28;20221;-70
2021/03/01 15:47:26;;;;;;;20.27;7.43;;;11.80;99.90;;;;;;5011452;28;20244;-70
2021/03/01 15:49:52;;;;;;;22.80;8.03;;;11.90;99.90;;;;;;5012951;28;20209;-70
2021/03/01 15:52:18;;;;;;;17.27;7.70;;;11.80;99.90;;;;;;5013050;28;20209;-70
2021/03/01 15:54:46;;;;;;;17.07;7.43;;;11.80;99.90;;;;;;5012466;28;20233;-71
2021/03/01 15:57:12;;;;;;;19.87;7.97;;;11.80;99.90;;;;;;5013321;28;20209;-70
2021/03/01 15:59:38;;;;;;;20.63;8.23;;;11.80;99.90;;;;;;5013169;28;20208;-72
2021/03/01 16:02:05;;;;;;;17.87;7.10;;;11.70;99.90;;;;;;5013099;28;20676;-70
2021/03/01 16:04:31;;;;;;;19.93;7.73;;;11.60;99.90;;;;;;5012671;28;20253;-70
2021/03/01 16:06:58;;;;;;;18.17;7.60;;;11.60;99.90;;;;;;5012294;28;20233;-71
2021/03/01 16:09:24;;;;;;;22.00;7.80;;;11.60;99.90;;;;;;5013086;28;20233;-71
2021/03/01 16:11:51;;;;;;;19.27;8.13;;;11.50;99.90;;;;;;5013206;28;20214;-71
2021/03/01 16:14:18;;;;;;;20.50;8.30;;;11.60;99.90;;;;;;5013172;28;20628;-73
2021/03/01 16:16:44;;;;;;;20.87;8.47;;;11.60;99.90;;;;;;5013544;28;20271;-70
2021/03/01 16:19:10;;;;;;;21.50;8.07;;;11.50;99.90;;;;;;5012865;28;20661;-70
2021/03/01 16:21:36;;;;;;;18.60;7.23;;;11.50;99.90;;;;;;5016807;28;20293;-70
2021/03/01 16:24:03;;;;;;;18.33;6.93;;;11.50;99.90;;;;;;5016579;28;20233;-71
2021/03/01 16:26:29;;;;;;;24.27;7.13;;;11.50;99.90;;;;;;5017009;28;20319;-70
2021/03/01 16:28:56;;;;;;;17.97;7.20;;;11.50;99.90;;;;;;5017014;28;20239;-73
2021/03/01 16:31:26;;;;;;;19.23;7.63;;;11.40;99.90;;;;;;5016926;28;20205;-75
2021/03/01 16:33:53;;;;;;;16.87;7.87;;;11.50;99.90;;;;;;5016542;28;20206;-73
2021/03/01 16:36:20;;;;;;;21.07;8.17;;;11.40;99.90;;;;;;5016679;28;20209;-71
2021/03/01 16:38:47;;;;;;;18.13;7.13;;;11.40;99.90;;;;;;5016136;28;20240;-71
2021/03/01 16:41:17;;;;;;;21.37;8.40;;;11.30;99.90;;;;;;5016463;28;20550;-74
2021/03/01 16:43:45;;;;;;;21.67;7.93;;;11.30;99.90;;;;;;5016350;28;20206;-75
2021/03/01 16:46:14;;;;;;;21.47;7.73;;;11.30;99.90;;;;;;5016430;28;20234;-74
2021/03/01 16:48:40;;;;;;;19.27;7.47;;;11.30;99.90;;;;;;5016535;28;20201;-74
2021/03/01 16:51:06;;;;;;;24.23;8.67;;;11.20;99.90;;;;;;5016033;28;20287;-74
2021/03/01 16:53:36;;;;;;;22.57;9.03;;;11.20;99.90;;;;;;5016258;28;20216;-76
2021/03/01 16:56:03;;;;;;;19.13;8.23;;;11.10;99.90;;;;;;5016085;28;20241;-75
2021/03/01 16:58:30;;;;;;;20.10;8.20;;;11.10;99.90;;;;;;5015814;28;20206;-75
2021/03/01 17:00:57;;;;;;;22.27;8.23;;;11.10;99.90;;;;;;5016173;28;20567;-75
2021/03/01 17:03:25;;;;;;;22.23;9.10;;;11.00;99.90;;;;;;5016660;28;20209;-74
2021/03/01 17:05:52;;;;;;;21.60;8.10;;;10.90;99.90;;;;;;5015550;28;20655;-74
2021/03/01 17:08:22;;;;;;;24.60;8.03;;;11.00;99.90;;;;;;5015838;28;20252;-75
2021/03/01 17:10:49;;;;;;;25.83;8.40;;;10.90;99.90;;;;;;5016073;28;20259;-74
2021/03/01 17:13:24;;;;;;;20.10;8.63;;;10.80;99.90;;;;;;5015799;28;20213;-74
2021/03/01 17:15:51;;;;;;;22.33;7.90;;;10.70;99.90;;;;;;5015904;28;20686;-74
2021/03/01 17:18:20;;;;;;;22.10;7.87;;;10.60;99.90;;;;;;5015558;28;20665;-74
2021/03/01 17:20:51;;;;;;;22.80;8.83;;;10.60;99.90;;;;;;5015737;28;20289;-75
2021/03/01 17:23:21;;;;;;;22.73;9.60;;;10.60;99.90;;;;;;5015486;28;20209;-74
2021/03/01 17:25:50;;;;;;;27.50;8.93;;;10.80;99.90;;;;;;5015506;28;20304;-75
2021/03/01 17:28:18;;;;;;;27.90;10.53;;;10.70;99.90;;;;;;5015660;28;20206;-74
2021/03/01 17:30:47;;;;;;;30.50;9.73;;;10.60;99.90;;;;;;5014970;28;20209;-75
2021/03/01 17:33:17;;;;;;;26.53;10.77;;;10.80;99.90;;;;;;5015736;28;20206;-74
2021/03/01 17:35:48;;;;;;;28.70;10.87;;;10.90;99.90;;;;;;5015141;28;20726;-74
2021/03/01 17:38:16;;;;;;;27.77;10.10;;;10.90;99.90;;;;;;5015272;28;20217;-75
2021/03/01 17:40:45;;;;;;;28.40;10.40;;;10.70;99.90;;;;;;5015521;28;20297;-74
2021/03/01 17:43:12;;;;;;;29.27;10.17;;;10.60;99.90;;;;;;5015750;28;20276;-75
2021/03/01 17:45:38;;;;;;;27.60;10.90;;;10.30;99.90;;;;;;5015441;28;20241;-74
2021/03/01 17:48:06;;;;;;;25.90;9.97;;;10.20;99.90;;;;;;5015399;28;20206;-74
2021/03/01 17:50:34;;;;;;;29.73;10.13;;;10.20;99.90;;;;;;5015086;28;20293;-71
2021/03/01 17:53:06;;;;;;;30.70;10.37;;;10.10;99.90;;;;;;5011588;28;20213;-72
2021/03/01 17:55:41;;;;;;;27.37;10.40;;;10.10;99.90;;;;;;5015239;28;20234;-72
2021/03/01 17:58:16;;;;;;;28.13;11.00;;;10.20;99.90;;;;;;5014742;28;20549;-73
2021/03/01 18:00:45;;;;;;;35.93;10.97;;;10.30;99.90;;;;;;5014985;28;20212;-71
2021/03/01 18:03:18;;;;;;;33.27;12.80;;;10.40;99.90;;;;;;5014562;28;20213;-73
2021/03/01 18:05:46;;;;;;;26.57;10.63;;;10.40;99.90;;;;;;5014781;28;20284;-72
2021/03/01 18:08:16;;;;;;;30.40;11.17;;;10.40;99.90;;;;;;5014672;28;20209;-73
2021/03/01 18:10:46;;;;;;;28.87;11.57;;;10.40;99.90;;;;;;5014887;28;20202;-73
2021/03/01 18:13:16;;;;;;;31.80;10.30;;;10.40;99.90;;;;;;5014339;28;20301;-73
2021/03/01 18:15:42;;;;;;;36.70;11.33;;;10.40;99.90;;;;;;5014193;28;20245;-71
2021/03/01 18:18:09;;;;;;;27.07;10.67;;;10.20;99.90;;;;;;5014494;28;20209;-72
2021/03/01 18:20:36;;;;;;;34.87;11.80;;;10.10;99.90;;;;;;5014618;28;20201;-74
2021/03/01 18:23:05;;;;;;;31.13;11.43;;;10.10;99.90;;;;;;5014075;28;20206;-71
2021/03/01 18:25:33;;;;;;;26.10;9.80;;;10.10;99.90;;;;;;5014313;28;20747;-71
2021/03/01 18:28:00;;;;;;;28.73;10.80;;;9.80;99.90;;;;;;5014617;28;20205;-71
2021/03/01 18:30:27;;;;;;;30.33;10.77;;;9.70;99.90;;;;;;5003923;28;20714;-72
2021/03/01 18:33:03;;;;;;;26.70;10.73;;;9.60;99.90;;;;;;5005453;28;20205;-71
2021/03/01 18:35:35;;;;;;;30.07;11.00;;;9.60;99.90;;;;;;5005606;28;20225;-71
2021/03/01 18:38:14;;;;;;;27.10;10.10;;;9.60;99.90;;;;;;5007142;28;20263;-71
2021/03/01 18:40:49;;;;;;;28.87;10.43;;;9.40;99.90;;;;;;5003563;28;20201;-71
2021/03/01 18:43:18;;;;;;;32.73;11.53;;;9.40;99.90;;;;;;5004432;28;20217;-71
2021/03/01 18:45:45;;;;;;;32.50;11.63;;;9.50;99.90;;;;;;5001264;28;20228;-72
2021/03/01 18:48:19;;;;;;;31.70;10.93;;;9.20;99.90;;;;;;5010792;28;20329;-71
2021/03/01 18:50:45;;;;;;;26.60;11.47;;;8.90;99.90;;;;;;5006121;28;20261;-71
2021/03/01 18:53:12;;;;;;;31.00;12.07;;;8.90;99.90;;;;;;5005939;28;20263;-72
2021/03/01 18:55:38;;;;;;;29.83;10.67;;;9.00;99.90;;;;;;5002987;28;20604;-71
2021/03/01 18:58:06;;;;;;;29.30;11.33;;;8.70;99.90;;;;;;5003893;28;20268;-71
2021/03/01 19:00:32;;;;;;;31.77;10.47;;;8.50;99.90;;;;;;5001912;28;20256;-72
2021/03/01 19:03:00;;;;;;;31.37;11.60;;;8.60;99.90;;;;;;5005816;28;20203;-71
2021/03/01 19:05:26;;;;;;;27.93;10.60;;;8.50;99.90;;;;;;5004950;28;20288;-71
2021/03/01 19:07:52;;;;;;;31.40;10.17;;;8.50;99.90;;;;;;5000909;28;20241;-72
2021/03/01 19:10:19;;;;;;;28.50;9.67;;;8.50;99.90;;;;;;5002962;28;20222;-71
2021/03/01 19:12:45;;;;;;;26.47;10.80;;;8.40;99.90;;;;;;5005517;28;20657;-74
2021/03/01 19:15:12;;;;;;;32.03;11.37;;;8.30;99.90;;;;;;5000637;28;20712;-73
2021/03/01 19:17:39;;;;;;;27.73;10.10;;;8.30;99.90;;;;;;5001687;28;20225;-71
2021/03/01 19:20:06;;;;;;;32.13;10.97;;;8.40;99.90;;;;;;5008208;28;20210;-74
2021/03/01 19:22:32;;;;;;;33.50;11.60;;;8.40;99.90;;;;;;5007330;28;20691;-73
2021/03/01 19:24:59;;;;;;;29.20;11.60;;;8.40;99.90;;;;;;5006312;28;20695;-70
2021/03/01 19:27:25;;;;;;;28.60;11.17;;;8.40;99.90;;;;;;5008777;28;20241;-71
2021/03/01 19:29:51;;;;;;;29.10;10.97;;;8.40;99.90;;;;;;5003233;28;20202;-69
2021/03/01 19:32:18;;;;;;;29.67;10.57;;;8.40;99.90;;;;;;5002875;28;20223;-70
2021/03/01 19:34:45;;;;;;;32.87;11.27;;;8.20;99.90;;;;;;5002558;28;20229;-71
2021/03/01 19:37:11;;;;;;;34.03;10.93;;;8.10;99.90;;;;;;5005863;28;20233;-70
2021/03/01 19:39:37;;;;;;;30.10;10.27;;;8.00;99.90;;;;;;5006496;28;20217;-70
2021/03/01 19:42:07;;;;;;;25.90;9.40;;;7.90;99.90;;;;;;5007297;28;20202;-73
2021/03/01 19:44:34;;;;;;;24.90;10.07;;;7.80;99.90;;;;;;5007967;28;20257;-69
2021/03/01 19:47:00;;;;;;;26.40;10.10;;;7.70;99.90;;;;;;5005685;28;20249;-71
2021/03/01 19:49:28;;;;;;;27.80;9.23;;;7.60;99.90;;;;;;5015591;28;20214;-70
2021/03/01 19:51:54;;;;;;;32.93;10.90;;;7.50;99.90;;;;;;5006029;28;20206;-69
2021/03/01 19:54:20;;;;;;;27.50;8.77;;;7.60;99.90;;;;;;5010501;28;20230;-69
2021/03/01 19:56:47;;;;;;;25.47;9.47;;;7.60;99.90;;;;;;5012862;28;20205;-69
2021/03/01 19:59:13;;;;;;;27.83;9.67;;;7.60;99.90;;;;;;5005900;28;20210;-70
2021/03/01 20:01:39;;;;;;;26.53;9.13;;;7.60;99.90;;;;;;5003631;28;20218;-69
2021/03/01 20:04:06;;;;;;;27.03;10.03;;;7.70;99.90;;;;;;5006284;28;20225;-69
2021/03/01 20:06:33;;;;;;;27.70;9.60;;;7.70;99.90;;;;;;5006465;28;20260;-70
2021/03/01 20:08:59;;;;;;;24.70;8.83;;;7.80;99.90;;;;;;5006665;28;20210;-69
2021/03/01 20:11:25;;;;;;;26.07;9.60;;;7.80;99.90;;;;;;5010370;28;20209;-69
2021/03/01 20:13:52;;;;;;;26.63;10.43;;;7.80;99.90;;;;;;5008355;28;20259;-69
2021/03/01 20:16:18;;;;;;;27.53;10.63;;;7.70;99.90;;;;;;5004811;28;20209;-70
2021/03/01 20:18:44;;;;;;;24.60;9.73;;;7.70;99.90;;;;;;5010497;28;20213;-70
2021/03/01 20:21:11;;;;;;;28.10;8.67;;;7.60;99.90;;;;;;5006593;28;20619;-70